Time;durP1;ratioP1;P1;durP2;ratioP2;P2;SDS_P1;SDS_P2;PMS_P1;PMS_P2;Temp;Humidity;BMP_temperature;BMP_pressure;BME280_temperature;BME280_humidity;BME280_pressure;Samples;Min_cycle;Max_cycle;Signal;HPM_P1;HPM_P2
2022/12/28 00:02:01;;;;;;;11.48;6.72;;;3.80;83.60;;;;;;4969214;28;20042;-62
2022/12/28 00:04:26;;;;;;;9.52;6.05;;;3.80;83.60;;;;;;4969619;28;20465;-63
2022/12/28 00:06:52;;;;;;;11.20;7.30;;;3.80;83.30;;;;;;4975687;28;20042;-63
2022/12/28 00:09:17;;;;;;;12.13;7.68;;;3.70;83.50;;;;;;4971307;28;20319;-61
2022/12/28 00:11:43;;;;;;;14.07;7.28;;;3.70;83.20;;;;;;4969656;28;20034;-63
2022/12/28 00:14:09;;;;;;;9.05;6.57;;;3.70;83.20;;;;;;4972665;28;20076;-62
2022/12/28 00:16:39;;;;;;;12.68;7.97;;;3.60;83.20;;;;;;4972576;28;20173;-61
2022/12/28 00:19:09;;;;;;;13.23;7.00;;;3.60;83.30;;;;;;4970962;28;20046;-62
2022/12/28 00:21:35;;;;;;;9.23;6.30;;;3.50;83.60;;;;;;4977118;28;20121;-62
2022/12/28 00:24:01;;;;;;;10.95;6.75;;;3.50;83.90;;;;;;4972564;28;20042;-61
2022/12/28 00:26:29;;;;;;;11.70;6.72;;;3.40;84.30;;;;;;4977739;28;20034;-62
2022/12/28 00:28:55;;;;;;;13.07;6.75;;;3.40;84.40;;;;;;4975401;28;20173;-62
2022/12/28 00:31:20;;;;;;;11.80;7.35;;;3.40;84.60;;;;;;4975882;28;20042;-62
2022/12/28 00:33:46;;;;;;;12.52;6.78;;;3.40;84.80;;;;;;4970240;28;20035;-62
2022/12/28 00:36:13;;;;;;;12.52;7.45;;;3.40;85.10;;;;;;4972385;28;20150;-59
2022/12/28 00:38:39;;;;;;;11.50;6.63;;;3.40;85.20;;;;;;4984060;28;20450;-59
2022/12/28 00:41:09;;;;;;;11.15;6.80;;;3.40;84.90;;;;;;4973073;28;20122;-58
2022/12/28 00:43:35;;;;;;;14.82;7.35;;;3.50;84.70;;;;;;4970341;28;20041;-61
2022/12/28 00:46:01;;;;;;;10.07;6.88;;;3.50;84.70;;;;;;4983146;28;20031;-59
2022/12/28 00:48:26;;;;;;;9.13;6.35;;;3.40;84.20;;;;;;4975261;28;20514;-58
2022/12/28 00:50:59;;;;;;;9.88;6.15;;;3.40;84.20;;;;;;4977530;28;20054;-59
2022/12/28 00:53:24;;;;;;;8.70;6.13;;;3.40;84.30;;;;;;4975991;28;20501;-57
2022/12/28 00:55:50;;;;;;;9.85;6.07;;;3.40;84.40;;;;;;4975930;28;20116;-58
2022/12/28 00:58:15;;;;;;;9.35;6.07;;;3.40;84.40;;;;;;4976432;28;20568;-59
2022/12/28 01:00:41;;;;;;;8.55;5.95;;;3.40;84.50;;;;;;4980566;28;20397;-60
2022/12/28 01:03:07;;;;;;;8.60;6.40;;;3.40;84.60;;;;;;4983032;28;20113;-59
2022/12/28 01:05:32;;;;;;;8.00;6.32;;;3.40;84.90;;;;;;4977678;28;20031;-58
2022/12/28 01:07:58;;;;;;;8.35;5.68;;;3.40;84.80;;;;;;4968622;28;20050;-60
2022/12/28 01:10:23;;;;;;;9.05;6.43;;;3.40;84.90;;;;;;4972855;28;20034;-59
2022/12/28 01:12:49;;;;;;;9.15;5.47;;;3.40;85.20;;;;;;4962301;28;20462;-62
2022/12/28 01:15:15;;;;;;;7.72;5.82;;;3.40;85.10;;;;;;4970924;28;20564;-62
2022/12/28 01:17:40;;;;;;;7.72;5.97;;;3.50;85.30;;;;;;4974223;28;22391;-59
2022/12/28 01:20:07;;;;;;;8.30;6.30;;;3.50;85.20;;;;;;4970528;28;20090;-59
2022/12/28 01:22:33;;;;;;;11.60;6.35;;;3.50;85.40;;;;;;4967657;28;21769;-62
2022/12/28 01:24:58;;;;;;;9.15;6.38;;;3.50;85.60;;;;;;4975137;28;20045;-61
2022/12/28 01:27:24;;;;;;;8.55;6.30;;;3.50;85.50;;;;;;4975287;28;20035;-60
2022/12/28 01:29:49;;;;;;;10.02;7.20;;;3.60;85.40;;;;;;4970420;28;20038;-61
2022/12/28 01:32:15;;;;;;;8.60;6.72;;;3.60;85.40;;;;;;4975364;28;20066;-60
2022/12/28 01:34:41;;;;;;;9.13;6.18;;;3.60;86.20;;;;;;4974943;28;20085;-61
2022/12/28 01:37:06;;;;;;;11.52;6.25;;;3.60;85.10;;;;;;4976276;28;20051;-61
2022/12/28 01:39:32;;;;;;;10.73;6.38;;;3.60;84.70;;;;;;4974648;28;20041;-61
2022/12/28 01:41:57;;;;;;;14.50;6.28;;;3.60;84.60;;;;;;4973803;28;20034;-61
2022/12/28 01:44:23;;;;;;;19.27;6.75;;;3.60;84.70;;;;;;4972136;28;20490;-62
2022/12/28 01:46:55;;;;;;;15.48;7.38;;;3.60;84.60;;;;;;4977324;28;20042;-61
2022/12/28 01:49:39;;;;;;;11.68;7.28;;;3.60;84.60;;;;;;4973956;28;20443;-59
2022/12/28 01:52:08;;;;;;;12.43;7.65;;;3.60;85.40;;;;;;4978523;28;20046;-59
2022/12/28 01:54:43;;;;;;;14.07;7.38;;;3.60;85.40;;;;;;4979000;28;20454;-60
2022/12/28 01:57:08;;;;;;;9.35;6.00;;;3.60;85.30;;;;;;4972758;28;20042;-61
2022/12/28 01:59:40;;;;;;;11.30;6.57;;;3.60;85.10;;;;;;4973940;28;20039;-63
2022/12/28 02:02:06;;;;;;;11.60;6.68;;;3.60;85.00;;;;;;4972187;28;20081;-59
2022/12/28 02:04:31;;;;;;;17.88;6.88;;;3.60;84.60;;;;;;4967790;28;20133;-59
2022/12/28 02:06:57;;;;;;;14.98;7.60;;;3.50;84.20;;;;;;4955694;28;20034;-61
2022/12/28 02:09:28;;;;;;;15.60;7.22;;;3.50;84.40;;;;;;4966881;28;20049;-62
2022/12/28 02:11:54;;;;;;;12.73;6.70;;;3.50;84.70;;;;;;4965266;28;20113;-58
2022/12/28 02:14:21;;;;;;;9.90;6.85;;;3.50;84.70;;;;;;4967295;28;20038;-59
2022/12/28 02:16:46;;;;;;;9.43;6.20;;;3.40;84.40;;;;;;4972245;28;20080;-62
2022/12/28 02:19:17;;;;;;;9.27;6.45;;;3.40;84.50;;;;;;4970344;28;20042;-61
2022/12/28 02:22:20;;;;;;;8.27;6.03;;;3.30;84.90;;;;;;4974261;28;20031;-57
2022/12/28 02:25:23;;;;;;;7.35;5.68;;;3.30;85.70;;;;;;4967805;28;20042;-59
2022/12/28 02:28:08;;;;;;;9.27;5.85;;;3.30;86.00;;;;;;4975010;28;20117;-57
2022/12/28 02:30:43;;;;;;;9.25;5.88;;;3.40;86.10;;;;;;4971001;28;20121;-60
2022/12/28 02:33:17;;;;;;;8.85;5.95;;;3.40;85.90;;;;;;4972044;28;20897;-62
2022/12/28 02:36:22;;;;;;;10.88;6.85;;;3.40;85.90;;;;;;4974349;28;20031;-59
2022/12/28 02:38:57;;;;;;;10.20;6.45;;;3.40;86.30;;;;;;4862224;29;20677;-59
2022/12/28 02:41:23;;;;;;;;;;;3.40;86.00;;;;;;4958161;28;20035;-60
2022/12/28 02:43:50;;;;;;;9.38;6.72;;;3.50;86.30;;;;;;4975356;28;19922;-61
2022/12/28 02:52:54;;;;;;;8.90;6.93;;;3.50;86.60;;;;;;4973387;28;20146;-60
2022/12/28 02:58:37;;;;;;;8.98;7.60;;;3.60;88.00;;;;;;4970264;28;20490;-63
2022/12/28 03:01:15;;;;;;;10.05;7.72;;;3.60;88.00;;;;;;4966405;28;20050;-60
2022/12/28 03:04:02;;;;;;;11.35;7.97;;;3.70;88.70;;;;;;4976014;28;20612;-59
2022/12/28 03:10:02;;;;;;;10.20;8.00;;;3.80;89.50;;;;;;4972864;28;20135;-59
2022/12/28 03:12:49;;;;;;;9.88;7.95;;;3.90;89.30;;;;;;4964088;28;20229;-58
2022/12/28 03:15:28;;;;;;;8.95;7.63;;;3.90;88.90;;;;;;4968809;28;20030;-58
2022/12/28 03:31:59;;;;;;;10.23;6.78;;;4.00;88.40;;;;;;4969329;28;20097;-58
2022/12/28 03:34:25;;;;;;;10.25;7.60;;;4.10;88.40;;;;;;4968951;28;20043;-58
2022/12/28 03:37:18;;;;;;;9.07;7.10;;;4.10;88.30;;;;;;4968746;28;20039;-58
2022/12/28 03:39:57;;;;;;;8.80;7.03;;;4.10;88.40;;;;;;4972929;28;20042;-61
2022/12/28 03:45:44;;;;;;;9.93;7.47;;;4.20;88.00;;;;;;4966844;28;20098;-58
2022/12/28 03:48:11;;;;;;;8.48;7.05;;;4.20;88.00;;;;;;4966168;28;20054;-61
2022/12/28 03:50:39;;;;;;;9.50;7.45;;;4.20;88.20;;;;;;4972367;28;20038;-61
2022/12/28 03:53:07;;;;;;;11.43;7.93;;;4.30;88.50;;;;;;4971121;28;20085;-58
2022/12/28 03:55:34;;;;;;;9.75;7.68;;;4.30;88.60;;;;;;4969953;28;20091;-59
2022/12/28 03:58:00;;;;;;;9.90;7.85;;;4.30;88.60;;;;;;4976040;28;20041;-63
2022/12/28 04:00:25;;;;;;;9.93;7.50;;;4.40;88.70;;;;;;4970761;28;20042;-59
2022/12/28 04:02:51;;;;;;;9.40;7.38;;;4.40;88.70;;;;;;4972873;28;20117;-63
2022/12/28 04:05:16;;;;;;;9.50;7.70;;;4.40;88.60;;;;;;4972211;28;20125;-60
2022/12/28 04:07:42;;;;;;;9.82;7.80;;;4.50;89.10;;;;;;4972317;28;20062;-61
2022/12/28 04:10:08;;;;;;;12.30;8.73;;;4.50;88.80;;;;;;4970428;28;20043;-58
2022/12/28 04:12:33;;;;;;;9.35;7.93;;;4.60;88.90;;;;;;4976691;28;20053;-60
2022/12/28 04:14:59;;;;;;;9.80;8.13;;;4.60;88.90;;;;;;4972133;28;21205;-59
2022/12/28 04:17:24;;;;;;;11.05;8.50;;;4.60;89.00;;;;;;4970178;28;20034;-62
2022/12/28 04:19:50;;;;;;;10.57;7.80;;;4.70;89.10;;;;;;4972174;28;20046;-59
2022/12/28 04:22:15;;;;;;;11.38;8.48;;;4.70;89.10;;;;;;4970622;28;20493;-60
2022/12/28 04:24:41;;;;;;;9.20;7.65;;;4.70;89.20;;;;;;4972120;28;20190;-64
2022/12/28 04:27:06;;;;;;;10.48;8.10;;;4.80;89.40;;;;;;4970459;28;20035;-60
2022/12/28 04:29:32;;;;;;;10.30;8.43;;;4.80;89.30;;;;;;4972448;28;20035;-62
2022/12/28 04:31:58;;;;;;;9.80;7.85;;;4.80;89.30;;;;;;4976221;28;20436;-58
2022/12/28 04:34:23;;;;;;;10.30;8.25;;;4.80;89.40;;;;;;4975395;28;20037;-61
2022/12/28 04:36:49;;;;;;;11.60;8.05;;;4.90;89.40;;;;;;4972679;28;20030;-63
2022/12/28 04:39:14;;;;;;;9.75;8.05;;;4.90;89.40;;;;;;4976636;28;20545;-59
2022/12/28 04:41:40;;;;;;;9.52;7.88;;;5.00;89.40;;;;;;4973920;28;20046;-61
2022/12/28 04:44:05;;;;;;;9.68;7.78;;;5.00;89.40;;;;;;4976084;28;20419;-63
2022/12/28 04:46:31;;;;;;;10.40;7.72;;;5.00;89.30;;;;;;4975235;28;20450;-61
2022/12/28 04:48:58;;;;;;;12.82;8.02;;;5.10;89.20;;;;;;4975587;28;20038;-63
2022/12/28 04:51:26;;;;;;;32.35;17.98;;;5.10;89.10;;;;;;4972232;28;20663;-62
2022/12/28 04:53:53;;;;;;;20.10;15.45;;;5.10;89.20;;;;;;4976351;28;20035;-62
2022/12/28 04:56:20;;;;;;;11.98;8.65;;;5.10;89.10;;;;;;4975910;28;20058;-62
2022/12/28 04:58:46;;;;;;;9.32;7.50;;;5.10;89.10;;;;;;4971851;28;20081;-60
2022/12/28 05:01:16;;;;;;;8.82;6.72;;;5.20;89.10;;;;;;4979000;28;20490;-60
2022/12/28 05:03:43;;;;;;;9.30;7.55;;;5.20;88.90;;;;;;4973085;28;20449;-61
2022/12/28 05:06:14;;;;;;;8.43;7.38;;;5.20;88.90;;;;;;4974868;28;20039;-61
2022/12/28 05:08:40;;;;;;;9.35;7.00;;;5.20;88.90;;;;;;4970360;28;20031;-59
2022/12/28 05:11:09;;;;;;;9.18;6.55;;;5.30;88.90;;;;;;4968160;28;20398;-62
2022/12/28 05:13:35;;;;;;;8.70;6.97;;;5.30;88.80;;;;;;4971970;28;20049;-63
2022/12/28 05:16:02;;;;;;;8.82;6.75;;;5.30;88.70;;;;;;4967585;28;20043;-63
2022/12/28 05:18:28;;;;;;;7.90;6.60;;;5.30;88.70;;;;;;4960182;28;20047;-60
2022/12/28 05:20:59;;;;;;;7.80;6.20;;;5.30;88.70;;;;;;4970776;28;20053;-61
2022/12/28 05:23:26;;;;;;;7.13;5.63;;;5.30;88.70;;;;;;4976878;28;20035;-62
2022/12/28 05:25:52;;;;;;;9.90;6.47;;;5.40;88.80;;;;;;4969976;28;20042;-61
2022/12/28 05:28:18;;;;;;;7.50;6.25;;;5.40;88.80;;;;;;4973301;28;20168;-62
2022/12/28 05:30:43;;;;;;;8.27;6.53;;;5.40;88.90;;;;;;4971354;28;20041;-63
2022/12/28 05:33:09;;;;;;;9.77;7.68;;;5.40;88.90;;;;;;4972447;28;20042;-62
2022/12/28 05:35:34;;;;;;;8.00;5.00;;;5.50;89.00;;;;;;4971679;28;20031;-62
2022/12/28 05:38:00;;;;;;;4.43;4.03;;;5.50;89.00;;;;;;4977074;28;20026;-60
2022/12/28 05:40:26;;;;;;;6.68;4.53;;;5.50;88.90;;;;;;4968282;28;20049;-61
2022/12/28 05:42:51;;;;;;;5.15;4.43;;;5.60;88.90;;;;;;4972845;28;20042;-61
2022/12/28 05:45:17;;;;;;;4.72;3.95;;;5.60;89.10;;;;;;4968288;28;20629;-62
2022/12/28 05:47:42;;;;;;;5.93;4.43;;;5.60;88.90;;;;;;4970733;28;20053;-63
2022/12/28 05:50:08;;;;;;;4.15;3.70;;;5.70;88.90;;;;;;4969649;28;20368;-61
2022/12/28 05:52:35;;;;;;;4.60;3.70;;;5.70;88.80;;;;;;4954112;28;20041;-62
2022/12/28 05:55:01;;;;;;;4.85;3.75;;;5.70;88.80;;;;;;4969698;28;20382;-62
2022/12/28 05:57:26;;;;;;;3.78;3.35;;;5.70;88.70;;;;;;4972848;28;20030;-60
2022/12/28 05:59:52;;;;;;;4.68;3.63;;;5.80;88.70;;;;;;4972189;28;20441;-60
2022/12/28 06:02:17;;;;;;;6.20;3.88;;;5.80;88.60;;;;;;4973716;28;20089;-62
2022/12/28 06:04:43;;;;;;;4.20;3.80;;;5.80;88.50;;;;;;4971211;28;20047;-62
2022/12/28 06:07:08;;;;;;;4.35;3.95;;;5.80;88.40;;;;;;4973059;28;20046;-61
2022/12/28 06:09:34;;;;;;;7.53;4.22;;;5.90;88.40;;;;;;4974917;28;20046;-60
2022/12/28 06:12:00;;;;;;;4.40;3.97;;;5.90;88.20;;;;;;4964220;28;20030;-60
2022/12/28 06:14:26;;;;;;;6.43;3.90;;;5.90;88.20;;;;;;4969716;28;20142;-59
2022/12/28 06:16:51;;;;;;;4.47;3.63;;;5.90;88.20;;;;;;4970458;28;20034;-62
2022/12/28 06:19:17;;;;;;;4.07;3.45;;;5.90;88.20;;;;;;4974935;28;21608;-61
2022/12/28 06:21:43;;;;;;;4.43;3.60;;;5.90;88.10;;;;;;4970656;28;20034;-62
2022/12/28 06:24:09;;;;;;;7.25;5.55;;;5.90;88.00;;;;;;4968014;28;20034;-61
2022/12/28 06:26:37;;;;;;;5.03;4.00;;;5.90;88.00;;;;;;4970477;28;20043;-62
2022/12/28 06:29:03;;;;;;;4.82;3.63;;;6.00;88.00;;;;;;4972515;28;20138;-63
2022/12/28 06:31:32;;;;;;;5.68;3.72;;;6.00;88.00;;;;;;4973952;28;20039;-61
2022/12/28 06:34:00;;;;;;;4.53;3.67;;;6.00;87.90;;;;;;4969653;28;20572;-63
2022/12/28 06:36:28;;;;;;;5.10;3.83;;;6.00;87.90;;;;;;4969416;28;20030;-63
2022/12/28 06:38:56;;;;;;;4.75;3.58;;;6.10;87.90;;;;;;4974138;28;20270;-61
2022/12/28 06:41:22;;;;;;;5.20;3.65;;;6.10;87.90;;;;;;4973137;28;20117;-60
2022/12/28 06:43:49;;;;;;;5.93;5.05;;;6.10;87.70;;;;;;4980412;28;20038;-60
2022/12/28 06:46:17;;;;;;;8.20;5.10;;;6.10;87.70;;;;;;4971498;28;20034;-61
2022/12/28 06:48:43;;;;;;;5.28;4.45;;;6.10;87.50;;;;;;4975091;28;20042;-61
2022/12/28 06:51:17;;;;;;;5.93;3.95;;;6.10;87.50;;;;;;4960851;28;20093;-63
2022/12/28 06:53:43;;;;;;;4.20;3.50;;;6.20;87.40;;;;;;4969865;28;20045;-62
2022/12/28 06:56:23;;;;;;;4.38;3.97;;;6.10;87.30;;;;;;4966360;28;20039;-61
2022/12/28 06:58:51;;;;;;;4.03;3.60;;;6.20;87.30;;;;;;4971203;28;20047;-60
2022/12/28 07:01:27;;;;;;;5.43;3.53;;;6.20;87.30;;;;;;4971103;28;20039;-61
2022/12/28 07:03:55;;;;;;;4.72;3.78;;;6.10;87.20;;;;;;4970367;28;20038;-60
2022/12/28 07:06:23;;;;;;;4.47;3.70;;;6.10;87.20;;;;;;4972838;28;20450;-62
2022/12/28 07:08:50;;;;;;;5.25;3.47;;;6.10;87.20;;;;;;4970566;28;20494;-61
2022/12/28 07:11:18;;;;;;;3.38;3.08;;;6.10;87.20;;;;;;4965375;28;20141;-61
2022/12/28 07:13:43;;;;;;;5.35;3.40;;;6.10;87.20;;;;;;4959366;28;20518;-60
2022/12/28 07:16:15;;;;;;;5.20;3.30;;;6.10;87.20;;;;;;4970703;28;20038;-60
2022/12/28 07:18:41;;;;;;;4.40;3.20;;;6.10;87.20;;;;;;4967755;28;20050;-61
2022/12/28 07:21:11;;;;;;;4.35;3.10;;;6.10;87.20;;;;;;4966087;28;21008;-60
2022/12/28 07:23:37;;;;;;;3.83;3.10;;;6.20;87.20;;;;;;4974991;28;20034;-62
2022/12/28 07:26:04;;;;;;;3.45;2.85;;;6.10;87.00;;;;;;4978562;28;20486;-63
2022/12/28 07:28:30;;;;;;;4.43;2.65;;;6.10;87.00;;;;;;4975528;28;20038;-60
2022/12/28 07:30:55;;;;;;;3.38;2.60;;;6.10;87.00;;;;;;4972354;28;20042;-61
2022/12/28 07:33:21;;;;;;;3.08;2.78;;;6.10;87.00;;;;;;4971650;28;20490;-62
2022/12/28 07:35:47;;;;;;;3.30;3.00;;;6.10;87.00;;;;;;4968967;28;20597;-61
2022/12/28 07:38:12;;;;;;;4.50;3.03;;;6.10;86.90;;;;;;4974468;28;20042;-62
2022/12/28 07:40:38;;;;;;;5.60;3.45;;;6.10;86.80;;;;;;4967507;28;20035;-61
2022/12/28 07:43:03;;;;;;;5.97;3.30;;;6.20;86.80;;;;;;4974603;28;20063;-62
2022/12/28 07:45:29;;;;;;;4.40;3.22;;;6.20;86.60;;;;;;4969516;28;20046;-62
2022/12/28 07:47:54;;;;;;;3.25;2.95;;;6.20;86.50;;;;;;4957791;28;20503;-61
2022/12/28 07:50:23;;;;;;;3.67;2.80;;;6.20;86.60;;;;;;4967184;28;20037;-63
2022/12/28 07:52:49;;;;;;;3.78;3.05;;;6.20;86.40;;;;;;4972984;28;20169;-61
2022/12/28 07:55:14;;;;;;;4.15;3.08;;;6.20;86.40;;;;;;4966636;28;20026;-62
2022/12/28 07:57:40;;;;;;;6.55;3.00;;;6.20;86.30;;;;;;4951553;28;20054;-63
2022/12/28 08:00:06;;;;;;;3.33;3.00;;;6.20;86.20;;;;;;4973367;28;20049;-62
2022/12/28 08:02:32;;;;;;;3.95;3.25;;;6.20;86.80;;;;;;4977410;28;20038;-63
2022/12/28 08:04:58;;;;;;;3.00;2.70;;;6.20;86.20;;;;;;4977512;28;20097;-63
2022/12/28 08:07:23;;;;;;;4.38;2.70;;;6.20;86.20;;;;;;4977743;28;20050;-63
2022/12/28 08:09:49;;;;;;;5.03;3.35;;;6.20;86.20;;;;;;4975552;28;20038;-63
2022/12/28 08:12:14;;;;;;;5.45;3.30;;;6.30;86.30;;;;;;4969268;28;20022;-63
2022/12/28 08:14:40;;;;;;;3.42;2.60;;;6.30;86.30;;;;;;4973444;28;20126;-62
2022/12/28 08:17:05;;;;;;;3.00;2.45;;;6.30;86.30;;;;;;4971866;28;20301;-61
2022/12/28 08:19:31;;;;;;;4.70;2.63;;;6.30;86.30;;;;;;4967457;28;20070;-62
2022/12/28 08:21:57;;;;;;;2.83;2.53;;;6.20;86.30;;;;;;4976065;28;20042;-63
2022/12/28 08:24:22;;;;;;;2.67;2.45;;;6.30;86.50;;;;;;4973688;28;20124;-62
2022/12/28 08:26:48;;;;;;;2.90;2.58;;;6.30;87.40;;;;;;4979811;28;20248;-62
2022/12/28 08:29:20;;;;;;;5.78;3.33;;;6.30;86.60;;;;;;4974702;28;20089;-61
2022/12/28 08:31:46;;;;;;;3.42;3.10;;;6.30;86.50;;;;;;4965923;28;20066;-63
2022/12/28 08:34:16;;;;;;;4.35;2.90;;;6.30;86.50;;;;;;4965682;28;20050;-63
2022/12/28 08:36:42;;;;;;;5.85;3.17;;;6.30;86.60;;;;;;4973610;28;20153;-61
2022/12/28 08:39:08;;;;;;;4.78;3.75;;;6.30;86.70;;;;;;4977229;28;20095;-61
2022/12/28 08:41:34;;;;;;;4.47;3.75;;;6.30;86.70;;;;;;4970628;28;20031;-63
2022/12/28 08:43:59;;;;;;;4.38;3.17;;;6.30;86.80;;;;;;4980659;28;20043;-62
2022/12/28 08:46:30;;;;;;;6.00;4.85;;;6.40;86.80;;;;;;4973209;28;20031;-63
2022/12/28 08:48:57;;;;;;;4.82;3.58;;;6.40;86.80;;;;;;4982902;28;20045;-63
2022/12/28 08:51:31;;;;;;;3.45;3.03;;;6.50;86.80;;;;;;4975549;28;20049;-61
2022/12/28 08:53:57;;;;;;;4.05;3.33;;;6.50;86.60;;;;;;4975547;28;20110;-61
2022/12/28 08:56:34;;;;;;;4.05;3.03;;;6.50;86.60;;;;;;4972956;28;20034;-64
2022/12/28 08:59:01;;;;;;;4.57;3.08;;;6.60;86.50;;;;;;4977135;28;20038;-61
2022/12/28 09:01:30;;;;;;;4.00;2.17;;;6.60;86.50;;;;;;4980046;28;20529;-63
2022/12/28 09:03:57;;;;;;;3.00;2.70;;;6.70;86.50;;;;;;4977484;28;20177;-61
2022/12/28 09:06:26;;;;;;;3.53;2.40;;;6.60;86.30;;;;;;4972596;28;20035;-62
2022/12/28 09:08:54;;;;;;;2.20;2.00;;;6.70;86.20;;;;;;4980324;28;20035;-63
2022/12/28 09:11:20;;;;;;;4.55;2.97;;;6.70;86.10;;;;;;4970612;28;20129;-64
2022/12/28 09:13:46;;;;;;;2.55;1.90;;;6.70;86.00;;;;;;4976358;28;20034;-63
2022/12/28 09:16:18;;;;;;;4.40;3.28;;;6.80;86.00;;;;;;4973537;28;20035;-63
2022/12/28 09:18:44;;;;;;;5.97;3.08;;;6.80;85.70;;;;;;4971738;28;20037;-63
2022/12/28 09:21:18;;;;;;;6.03;3.88;;;6.80;85.80;;;;;;4975171;28;20188;-63
2022/12/28 09:23:45;;;;;;;3.13;2.10;;;6.80;85.50;;;;;;4978084;28;20483;-61
2022/12/28 09:26:12;;;;;;;2.10;1.60;;;6.80;85.40;;;;;;4971721;28;20042;-63
2022/12/28 09:28:38;;;;;;;2.13;1.67;;;6.80;85.20;;;;;;4970694;28;20039;-62
2022/12/28 09:31:05;;;;;;;1.88;1.40;;;6.90;85.20;;;;;;4976048;28;20581;-63
2022/12/28 09:36:16;;;;;;;1.33;1.23;;;6.90;84.80;;;;;;4965280;28;20114;-63
2022/12/28 09:38:42;;;;;;;2.67;1.10;;;6.90;84.60;;;;;;4971574;28;20031;-63
2022/12/28 09:41:32;;;;;;;1.23;1.13;;;6.90;84.50;;;;;;4976645;28;20034;-61
2022/12/28 09:44:15;;;;;;;2.85;1.13;;;6.90;83.60;;;;;;4963978;28;20031;-60
2022/12/28 09:46:45;;;;;;;2.65;1.30;;;6.90;83.90;;;;;;4976830;28;20043;-61
2022/12/28 09:49:15;;;;;;;2.42;1.30;;;6.90;84.00;;;;;;4967845;28;20165;-59
2022/12/28 09:52:05;;;;;;;2.22;1.40;;;6.90;83.80;;;;;;4983179;28;20416;-59
2022/12/28 09:54:30;;;;;;;1.48;1.17;;;7.00;83.80;;;;;;4978012;28;20062;-62
2022/12/28 09:56:56;;;;;;;1.33;1.10;;;7.00;84.00;;;;;;4976187;28;20141;-60
2022/12/28 09:59:24;;;;;;;2.25;1.20;;;7.00;83.80;;;;;;4976297;28;20047;-63
2022/12/28 10:01:57;;;;;;;1.88;1.20;;;7.00;83.60;;;;;;4973149;28;20411;-62
2022/12/28 10:04:23;;;;;;;1.63;1.20;;;7.00;83.40;;;;;;4972351;28;20043;-62
2022/12/28 10:06:49;;;;;;;2.35;1.77;;;7.00;83.40;;;;;;4969364;28;20035;-63
2022/12/28 10:09:23;;;;;;;4.00;2.35;;;7.10;83.50;;;;;;4978870;28;20097;-64
2022/12/28 10:11:49;;;;;;;2.97;2.22;;;7.00;83.20;;;;;;4971264;28;20030;-60
2022/12/28 10:14:26;;;;;;;5.70;3.80;;;7.10;83.40;;;;;;4973463;28;20044;-60
2022/12/28 10:16:51;;;;;;;3.63;3.17;;;7.10;83.10;;;;;;4978461;28;20035;-63
2022/12/28 10:19:21;;;;;;;2.33;2.13;;;7.10;83.10;;;;;;4975078;28;20718;-63
2022/12/28 10:22:02;;;;;;;2.15;1.48;;;7.10;83.00;;;;;;4981457;28;20026;-63
2022/12/28 10:24:28;;;;;;;1.48;1.38;;;7.10;82.80;;;;;;4973869;28;20082;-62
2022/12/28 10:27:00;;;;;;;1.95;1.23;;;7.20;83.10;;;;;;4973501;28;20045;-63
2022/12/28 10:29:26;;;;;;;1.48;1.20;;;7.20;82.70;;;;;;4972995;28;20529;-62
2022/12/28 10:32:13;;;;;;;2.72;1.55;;;7.20;82.90;;;;;;4974426;28;20122;-63
2022/12/28 10:35:01;;;;;;;2.45;1.27;;;7.30;82.70;;;;;;4973437;28;20038;-61
2022/12/28 10:37:30;;;;;;;1.60;1.50;;;7.30;82.50;;;;;;4971737;28;20474;-62
2022/12/28 10:40:02;;;;;;;1.40;1.00;;;7.40;82.90;;;;;;4976857;28;20045;-66
2022/12/28 10:42:30;;;;;;;1.48;1.35;;;7.50;82.90;;;;;;4978041;28;20042;-64
2022/12/28 10:45:34;;;;;;;2.72;1.63;;;7.50;82.80;;;;;;4973541;28;20504;-61
2022/12/28 10:48:01;;;;;;;3.05;1.40;;;7.50;82.20;;;;;;4953162;28;20061;-60
2022/12/28 10:50:40;;;;;;;3.53;1.60;;;7.60;82.90;;;;;;4970732;28;20409;-60
2022/12/28 10:53:27;;;;;;;1.63;1.40;;;7.70;82.40;;;;;;4980034;28;20089;-60
2022/12/28 10:56:13;;;;;;;2.72;1.48;;;7.70;82.30;;;;;;4983120;28;20122;-60
2022/12/28 10:58:44;;;;;;;1.73;1.50;;;7.80;82.10;;;;;;4979693;28;20034;-64
2022/12/28 11:01:12;;;;;;;1.98;1.30;;;7.80;82.40;;;;;;4977284;28;20407;-62
2022/12/28 11:03:39;;;;;;;2.80;1.40;;;7.80;82.20;;;;;;4979184;28;20097;-61
2022/12/28 11:06:10;;;;;;;2.67;1.17;;;7.90;82.20;;;;;;4982378;28;20260;-60
2022/12/28 11:08:38;;;;;;;3.08;1.20;;;7.90;81.70;;;;;;4978618;28;20117;-62
2022/12/28 11:11:04;;;;;;;1.63;1.10;;;8.00;81.90;;;;;;4976910;28;20418;-62
2022/12/28 11:13:30;;;;;;;2.33;1.33;;;8.00;81.80;;;;;;4978438;28;20035;-62
2022/12/28 11:15:56;;;;;;;2.10;1.17;;;8.00;81.80;;;;;;4981472;28;21302;-63
2022/12/28 11:18:22;;;;;;;3.35;1.20;;;8.00;81.70;;;;;;4959707;28;20049;-61
2022/12/28 11:20:50;;;;;;;1.38;1.00;;;8.10;82.50;;;;;;4980278;28;20042;-62
2022/12/28 11:23:24;;;;;;;1.80;1.00;;;8.10;81.30;;;;;;4979654;28;20050;-61
2022/12/28 11:25:50;;;;;;;;;;;8.10;81.10;;;;;;4976280;28;20148;-62
2022/12/28 11:28:19;;;;;;;1.52;0.90;;;8.20;80.60;;;;;;4977501;28;20364;-62
2022/12/28 11:30:46;;;;;;;1.95;1.42;;;8.20;81.20;;;;;;4978666;28;20042;-62
2022/12/28 11:33:37;;;;;;;1.85;1.25;;;8.30;81.10;;;;;;4976223;28;20798;-61
2022/12/28 11:36:03;;;;;;;2.20;1.27;;;8.30;80.50;;;;;;4982947;28;20086;-63
2022/12/28 11:38:43;;;;;;;2.38;1.10;;;8.40;81.20;;;;;;4978078;28;20549;-61
2022/12/28 11:41:22;;;;;;;1.90;1.30;;;8.40;80.50;;;;;;4970100;28;20042;-62
2022/12/28 11:43:49;;;;;;;1.48;1.17;;;8.50;81.00;;;;;;4965251;28;20053;-63
2022/12/28 11:46:20;;;;;;;2.08;1.13;;;8.60;81.20;;;;;;4982968;28;20037;-61
2022/12/28 11:49:01;;;;;;;2.00;1.30;;;8.70;80.80;;;;;;4982564;28;20118;-62
2022/12/28 11:51:31;;;;;;;1.10;1.00;;;8.80;80.30;;;;;;4980422;28;20049;-62
2022/12/28 11:54:36;;;;;;;2.08;1.10;;;8.80;80.60;;;;;;4984714;28;20062;-62
2022/12/28 11:57:01;;;;;;;1.40;1.00;;;8.90;79.60;;;;;;4984590;28;20038;-63
2022/12/28 11:59:28;;;;;;;1.88;1.05;;;9.00;80.30;;;;;;4980439;28;20042;-63
2022/12/28 12:02:22;;;;;;;1.30;1.13;;;9.10;80.10;;;;;;4983157;28;20037;-62
2022/12/28 12:04:48;;;;;;;1.67;1.20;;;9.10;78.70;;;;;;4967101;28;20038;-61
2022/12/28 12:07:23;;;;;;;1.23;0.90;;;9.10;79.30;;;;;;4985797;28;20035;-61
2022/12/28 12:10:08;;;;;;;;;;;9.20;78.90;;;;;;4983352;28;20050;-62
2022/12/28 12:12:36;;;;;;;1.20;1.10;;;9.30;78.70;;;;;;4976955;28;20439;-61
2022/12/28 12:15:03;;;;;;;1.75;0.90;;;9.30;79.30;;;;;;4983087;28;20207;-62
2022/12/28 12:17:43;;;;;;;1.75;1.23;;;9.30;78.70;;;;;;4984931;28;20416;-61
2022/12/28 12:20:48;;;;;;;0.90;0.90;;;9.30;78.20;;;;;;4986444;28;20568;-61
2022/12/28 12:23:20;;;;;;;3.00;1.10;;;9.40;77.10;;;;;;4986877;28;20255;-61
2022/12/28 12:25:48;;;;;;;1.58;1.08;;;9.40;77.70;;;;;;4986111;28;20042;-63
2022/12/28 12:28:32;;;;;;;1.88;0.90;;;9.40;77.90;;;;;;4986185;28;20062;-61
2022/12/28 12:30:59;;;;;;;1.42;0.80;;;9.40;76.30;;;;;;4982498;28;20038;-63
2022/12/28 12:33:28;;;;;;;3.88;3.00;;;9.40;77.40;;;;;;4985923;28;20514;-62
2022/12/28 12:36:12;;;;;;;3.80;1.02;;;9.50;77.40;;;;;;4977529;28;20417;-59
2022/12/28 12:38:44;;;;;;;1.27;1.00;;;9.50;75.80;;;;;;4987855;28;20494;-61
2022/12/28 12:41:25;;;;;;;2.45;1.10;;;9.50;77.00;;;;;;4986412;28;20101;-61
2022/12/28 12:44:05;;;;;;;5.60;1.13;;;9.50;76.80;;;;;;4986558;28;20560;-62
2022/12/28 12:46:58;;;;;;;1.92;1.10;;;9.50;76.00;;;;;;4970245;28;20030;-61
2022/12/28 12:49:30;;;;;;;1.77;0.82;;;9.50;75.70;;;;;;4971975;28;20035;-63
2022/12/28 12:52:06;;;;;;;1.42;0.85;;;9.60;75.40;;;;;;4969792;28;20517;-63
2022/12/28 12:54:31;;;;;;;2.30;0.85;;;9.50;76.10;;;;;;4974812;28;20084;-64
2022/12/28 12:57:18;;;;;;;0.82;0.82;;;9.60;76.30;;;;;;4973825;28;20042;-63
2022/12/28 13:00:17;;;;;;;1.73;0.90;;;9.50;76.00;;;;;;4973467;28;20126;-63
2022/12/28 13:03:07;;;;;;;2.70;0.88;;;9.60;75.40;;;;;;4979933;28;20510;-64
2022/12/28 13:05:35;;;;;;;1.75;1.00;;;9.60;76.10;;;;;;4979292;28;20731;-63
2022/12/28 13:08:02;;;;;;;3.92;0.98;;;9.60;76.50;;;;;;4978700;28;20034;-62
2022/12/28 13:10:36;;;;;;;0.82;0.70;;;9.70;76.40;;;;;;4976771;28;20410;-62
2022/12/28 13:13:03;;;;;;;1.70;1.10;;;9.70;76.00;;;;;;4987162;28;20042;-61
2022/12/28 13:15:29;;;;;;;1.50;1.10;;;9.80;76.50;;;;;;4974550;28;20053;-63
2022/12/28 13:18:16;;;;;;;1.38;0.80;;;9.90;76.30;;;;;;4980662;28;20031;-63
2022/12/28 13:21:00;;;;;;;0.75;0.70;;;9.90;75.30;;;;;;4982440;28;20039;-61
2022/12/28 13:23:29;;;;;;;2.00;1.80;;;10.00;74.70;;;;;;4977159;28;20125;-61
2022/12/28 13:25:59;;;;;;;2.88;1.00;;;10.00;75.20;;;;;;4976826;28;20046;-63
2022/12/28 13:28:34;;;;;;;1.42;0.90;;;10.00;74.20;;;;;;4977902;28;20502;-61
2022/12/28 13:31:22;;;;;;;1.90;1.05;;;10.00;74.00;;;;;;4981091;28;20047;-62
2022/12/28 13:33:59;;;;;;;3.13;1.25;;;10.00;74.10;;;;;;4980299;28;20407;-61
2022/12/28 13:36:25;;;;;;;1.88;1.00;;;10.00;73.50;;;;;;4983995;28;20042;-61
2022/12/28 13:39:11;;;;;;;2.10;1.08;;;10.00;74.20;;;;;;4979103;28;20128;-62
2022/12/28 13:41:48;;;;;;;3.33;1.10;;;10.00;73.10;;;;;;4981829;28;20042;-62
2022/12/28 13:44:24;;;;;;;0.90;0.77;;;10.00;73.70;;;;;;4978253;28;20034;-63